sensor_id;sensor_type;location;lat;lon;timestamp;temperature;humidity
15554;DHT22;7878;44.632;10.942;2022-12-18T00:01:33;10.60;99.90
15554;DHT22;7878;44.632;10.942;2022-12-18T00:04:01;10.60;99.90
15554;DHT22;7878;44.632;10.942;2022-12-18T00:06:28;10.60;99.90
15554;DHT22;7878;44.632;10.942;2022-12-18T00:08:55;10.50;99.90
15554;DHT22;7878;44.632;10.942;2022-12-18T00:11:24;10.50;99.90
15554;DHT22;7878;44.632;10.942;2022-12-18T00:13:50;10.50;99.90
15554;DHT22;7878;44.632;10.942;2022-12-18T00:16:19;10.50;99.90
15554;DHT22;7878;44.632;10.942;2022-12-18T00:18:50;10.50;99.90
15554;DHT22;7878;44.632;10.942;2022-12-18T00:21:17;10.50;99.90
15554;DHT22;7878;44.632;10.942;2022-12-18T00:23:44;10.50;99.90
15554;DHT22;7878;44.632;10.942;2022-12-18T00:26:21;10.50;99.90
15554;DHT22;7878;44.632;10.942;2022-12-18T00:28:47;10.50;99.90
15554;DHT22;7878;44.632;10.942;2022-12-18T00:31:16;10.50;99.90
15554;DHT22;7878;44.632;10.942;2022-12-18T00:33:42;10.50;99.90
15554;DHT22;7878;44.632;10.942;2022-12-18T00:36:15;10.50;99.90
15554;DHT22;7878;44.632;10.942;2022-12-18T00:38:41;10.50;99.90
15554;DHT22;7878;44.632;10.942;2022-12-18T00:41:09;10.50;99.90
15554;DHT22;7878;44.632;10.942;2022-12-18T00:43:35;10.50;99.90
15554;DHT22;7878;44.632;10.942;2022-12-18T00:46:01;10.40;99.90
15554;DHT22;7878;44.632;10.942;2022-12-18T00:48:27;10.40;99.90
15554;DHT22;7878;44.632;10.942;2022-12-18T00:50:52;10.40;99.80
15554;DHT22;7878;44.632;10.942;2022-12-18T00:53:18;10.40;99.90
15554;DHT22;7878;44.632;10.942;2022-12-18T00:55:44;10.30;99.90
15554;DHT22;7878;44.632;10.942;2022-12-18T00:58:11;10.30;99.60
15554;DHT22;7878;44.632;10.942;2022-12-18T01:00:37;10.30;99.90
15554;DHT22;7878;44.632;10.942;2022-12-18T01:03:04;10.30;99.80
15554;DHT22;7878;44.632;10.942;2022-12-18T01:05:29;10.30;99.70
15554;DHT22;7878;44.632;10.942;2022-12-18T01:07:56;10.30;99.90
15554;DHT22;7878;44.632;10.942;2022-12-18T01:10:22;10.20;99.50
15554;DHT22;7878;44.632;10.942;2022-12-18T01:12:48;10.20;99.70
15554;DHT22;7878;44.632;10.942;2022-12-18T01:15:15;10.20;99.90
15554;DHT22;7878;44.632;10.942;2022-12-18T01:17:41;10.20;99.80
15554;DHT22;7878;44.632;10.942;2022-12-18T01:20:08;10.20;99.70
15554;DHT22;7878;44.632;10.942;2022-12-18T01:22:35;10.10;99.60
15554;DHT22;7878;44.632;10.942;2022-12-18T01:25:01;10.10;99.50
15554;DHT22;7878;44.632;10.942;2022-12-18T01:27:27;10.00;99.50
15554;DHT22;7878;44.632;10.942;2022-12-18T01:29:52;10.00;99.70
15554;DHT22;7878;44.632;10.942;2022-12-18T01:32:18;10.00;99.50
15554;DHT22;7878;44.632;10.942;2022-12-18T01:34:44;9.90;99.90
15554;DHT22;7878;44.632;10.942;2022-12-18T01:37:09;9.90;99.90
15554;DHT22;7878;44.632;10.942;2022-12-18T01:39:36;9.80;99.90
15554;DHT22;7878;44.632;10.942;2022-12-18T01:42:10;9.80;99.90
15554;DHT22;7878;44.632;10.942;2022-12-18T01:50:02;9.70;99.90
15554;DHT22;7878;44.632;10.942;2022-12-18T01:52:31;9.70;99.80
15554;DHT22;7878;44.632;10.942;2022-12-18T01:54:57;9.70;99.90
15554;DHT22;7878;44.632;10.942;2022-12-18T01:57:25;9.70;99.90
15554;DHT22;7878;44.632;10.942;2022-12-18T01:59:53;9.60;99.90
15554;DHT22;7878;44.632;10.942;2022-12-18T02:02:20;9.60;99.90
15554;DHT22;7878;44.632;10.942;2022-12-18T02:04:46;9.50;99.90
15554;DHT22;7878;44.632;10.942;2022-12-18T02:10:46;9.50;99.90
15554;DHT22;7878;44.632;10.942;2022-12-18T02:15:34;9.40;99.90
15554;DHT22;7878;44.632;10.942;2022-12-18T02:18:18;9.40;99.90
15554;DHT22;7878;44.632;10.942;2022-12-18T02:20:55;9.40;99.90
15554;DHT22;7878;44.632;10.942;2022-12-18T02:28:29;9.40;99.90
15554;DHT22;7878;44.632;10.942;2022-12-18T02:30:59;9.40;99.90
15554;DHT22;7878;44.632;10.942;2022-12-18T02:33:27;9.50;99.90
15554;DHT22;7878;44.632;10.942;2022-12-18T02:35:55;9.50;99.90
15554;DHT22;7878;44.632;10.942;2022-12-18T02:38:23;9.50;99.90
15554;DHT22;7878;44.632;10.942;2022-12-18T02:40:51;9.50;99.90
15554;DHT22;7878;44.632;10.942;2022-12-18T02:43:19;9.50;99.90
15554;DHT22;7878;44.632;10.942;2022-12-18T02:45:52;9.60;99.90
15554;DHT22;7878;44.632;10.942;2022-12-18T02:48:22;9.60;99.90
15554;DHT22;7878;44.632;10.942;2022-12-18T02:50:59;9.70;99.90
15554;DHT22;7878;44.632;10.942;2022-12-18T02:56:21;9.70;99.90
15554;DHT22;7878;44.632;10.942;2022-12-18T03:04:16;9.60;99.90
15554;DHT22;7878;44.632;10.942;2022-12-18T03:06:48;9.60;99.90
15554;DHT22;7878;44.632;10.942;2022-12-18T03:09:19;9.50;99.90
15554;DHT22;7878;44.632;10.942;2022-12-18T03:11:50;9.60;99.90
15554;DHT22;7878;44.632;10.942;2022-12-18T03:14:38;9.60;99.80
15554;DHT22;7878;44.632;10.942;2022-12-18T03:17:09;9.60;99.80
15554;DHT22;7878;44.632;10.942;2022-12-18T03:19:35;9.60;99.70
15554;DHT22;7878;44.632;10.942;2022-12-18T03:22:04;9.70;99.60
15554;DHT22;7878;44.632;10.942;2022-12-18T03:24:31;9.70;99.40
15554;DHT22;7878;44.632;10.942;2022-12-18T03:27:01;9.60;99.50
15554;DHT22;7878;44.632;10.942;2022-12-18T03:29:56;9.60;99.60
15554;DHT22;7878;44.632;10.942;2022-12-18T03:32:35;9.60;99.00
15554;DHT22;7878;44.632;10.942;2022-12-18T03:35:03;9.60;99.40
15554;DHT22;7878;44.632;10.942;2022-12-18T03:37:32;9.60;99.10
15554;DHT22;7878;44.632;10.942;2022-12-18T03:39:57;9.60;99.10
15554;DHT22;7878;44.632;10.942;2022-12-18T03:42:29;9.60;99.20
15554;DHT22;7878;44.632;10.942;2022-12-18T03:45:09;9.50;99.10
15554;DHT22;7878;44.632;10.942;2022-12-18T03:50:48;9.50;98.90
15554;DHT22;7878;44.632;10.942;2022-12-18T03:56:13;9.50;98.60
15554;DHT22;7878;44.632;10.942;2022-12-18T03:58:41;9.50;99.00
15554;DHT22;7878;44.632;10.942;2022-12-18T04:01:09;9.50;99.10
15554;DHT22;7878;44.632;10.942;2022-12-18T04:03:37;9.60;99.10
15554;DHT22;7878;44.632;10.942;2022-12-18T04:06:04;9.60;99.20
15554;DHT22;7878;44.632;10.942;2022-12-18T04:08:31;9.70;99.50
15554;DHT22;7878;44.632;10.942;2022-12-18T04:10:57;9.70;99.70
15554;DHT22;7878;44.632;10.942;2022-12-18T04:13:24;9.60;99.80
15554;DHT22;7878;44.632;10.942;2022-12-18T04:15:50;9.60;99.80
15554;DHT22;7878;44.632;10.942;2022-12-18T04:18:16;9.60;99.60
15554;DHT22;7878;44.632;10.942;2022-12-18T04:20:42;9.60;99.20
15554;DHT22;7878;44.632;10.942;2022-12-18T04:23:07;9.60;98.80
15554;DHT22;7878;44.632;10.942;2022-12-18T04:25:33;9.60;98.80
15554;DHT22;7878;44.632;10.942;2022-12-18T04:27:58;9.60;99.10
15554;DHT22;7878;44.632;10.942;2022-12-18T04:30:24;9.60;98.90
15554;DHT22;7878;44.632;10.942;2022-12-18T04:32:50;9.60;98.90
15554;DHT22;7878;44.632;10.942;2022-12-18T04:35:15;9.60;99.20
15554;DHT22;7878;44.632;10.942;2022-12-18T04:37:41;9.60;99.00
15554;DHT22;7878;44.632;10.942;2022-12-18T04:40:07;9.60;98.90
15554;DHT22;7878;44.632;10.942;2022-12-18T04:42:33;9.60;98.60
15554;DHT22;7878;44.632;10.942;2022-12-18T04:44:59;9.60;98.80
15554;DHT22;7878;44.632;10.942;2022-12-18T04:47:24;9.60;98.80
15554;DHT22;7878;44.632;10.942;2022-12-18T04:49:50;9.60;99.00
15554;DHT22;7878;44.632;10.942;2022-12-18T04:52:15;9.60;98.60
15554;DHT22;7878;44.632;10.942;2022-12-18T04:54:41;9.60;98.80
15554;DHT22;7878;44.632;10.942;2022-12-18T04:57:07;9.60;98.60
15554;DHT22;7878;44.632;10.942;2022-12-18T04:59:33;9.60;98.50
15554;DHT22;7878;44.632;10.942;2022-12-18T05:01:58;9.60;98.40
15554;DHT22;7878;44.632;10.942;2022-12-18T05:04:24;9.60;98.60
15554;DHT22;7878;44.632;10.942;2022-12-18T05:06:49;9.60;98.90
15554;DHT22;7878;44.632;10.942;2022-12-18T05:09:15;9.70;98.90
15554;DHT22;7878;44.632;10.942;2022-12-18T05:11:41;9.70;98.70
15554;DHT22;7878;44.632;10.942;2022-12-18T05:14:06;9.70;98.50
15554;DHT22;7878;44.632;10.942;2022-12-18T05:16:32;9.60;98.60
15554;DHT22;7878;44.632;10.942;2022-12-18T05:18:58;9.50;98.50
15554;DHT22;7878;44.632;10.942;2022-12-18T05:21:23;9.50;98.60
15554;DHT22;7878;44.632;10.942;2022-12-18T05:23:49;9.50;98.80
15554;DHT22;7878;44.632;10.942;2022-12-18T05:26:17;9.50;98.90
15554;DHT22;7878;44.632;10.942;2022-12-18T05:28:43;9.50;98.70
15554;DHT22;7878;44.632;10.942;2022-12-18T05:31:09;9.50;98.70
15554;DHT22;7878;44.632;10.942;2022-12-18T05:33:35;9.50;98.50
15554;DHT22;7878;44.632;10.942;2022-12-18T05:36:02;9.50;98.80
15554;DHT22;7878;44.632;10.942;2022-12-18T05:38:30;9.50;98.70
15554;DHT22;7878;44.632;10.942;2022-12-18T05:40:56;9.50;98.90
15554;DHT22;7878;44.632;10.942;2022-12-18T05:43:23;9.50;98.60
15554;DHT22;7878;44.632;10.942;2022-12-18T05:45:49;9.50;98.60
15554;DHT22;7878;44.632;10.942;2022-12-18T05:48:16;9.60;98.70
15554;DHT22;7878;44.632;10.942;2022-12-18T05:50:43;9.60;98.50
15554;DHT22;7878;44.632;10.942;2022-12-18T05:53:14;9.60;98.40
15554;DHT22;7878;44.632;10.942;2022-12-18T05:55:41;9.60;98.60
15554;DHT22;7878;44.632;10.942;2022-12-18T05:58:09;9.60;98.80
15554;DHT22;7878;44.632;10.942;2022-12-18T06:00:36;9.60;98.70
15554;DHT22;7878;44.632;10.942;2022-12-18T06:03:05;9.60;98.60
15554;DHT22;7878;44.632;10.942;2022-12-18T06:05:35;9.60;98.60
15554;DHT22;7878;44.632;10.942;2022-12-18T06:08:02;9.60;98.60
15554;DHT22;7878;44.632;10.942;2022-12-18T06:10:27;9.50;98.40
15554;DHT22;7878;44.632;10.942;2022-12-18T06:12:53;9.50;98.50
15554;DHT22;7878;44.632;10.942;2022-12-18T06:15:18;9.50;98.40
15554;DHT22;7878;44.632;10.942;2022-12-18T06:17:44;9.50;98.40
15554;DHT22;7878;44.632;10.942;2022-12-18T06:20:10;9.40;98.40
15554;DHT22;7878;44.632;10.942;2022-12-18T06:22:35;9.40;98.60
15554;DHT22;7878;44.632;10.942;2022-12-18T06:25:01;9.40;98.90
15554;DHT22;7878;44.632;10.942;2022-12-18T06:27:27;9.40;99.00
15554;DHT22;7878;44.632;10.942;2022-12-18T06:29:52;9.30;98.80
15554;DHT22;7878;44.632;10.942;2022-12-18T06:32:18;9.30;98.70
15554;DHT22;7878;44.632;10.942;2022-12-18T06:34:44;9.30;98.70
15554;DHT22;7878;44.632;10.942;2022-12-18T06:37:09;9.30;98.30
15554;DHT22;7878;44.632;10.942;2022-12-18T06:39:35;9.30;98.90
15554;DHT22;7878;44.632;10.942;2022-12-18T06:42:00;9.40;99.20
15554;DHT22;7878;44.632;10.942;2022-12-18T06:44:26;9.40;99.10
15554;DHT22;7878;44.632;10.942;2022-12-18T06:46:52;9.40;99.00
15554;DHT22;7878;44.632;10.942;2022-12-18T06:49:17;9.40;99.00
15554;DHT22;7878;44.632;10.942;2022-12-18T06:51:43;9.40;98.90
15554;DHT22;7878;44.632;10.942;2022-12-18T06:54:09;9.40;98.70
15554;DHT22;7878;44.632;10.942;2022-12-18T06:56:34;9.30;98.60
15554;DHT22;7878;44.632;10.942;2022-12-18T06:59:00;9.30;98.50
15554;DHT22;7878;44.632;10.942;2022-12-18T07:01:26;9.30;98.60
15554;DHT22;7878;44.632;10.942;2022-12-18T07:03:56;9.30;98.50
15554;DHT22;7878;44.632;10.942;2022-12-18T07:06:24;9.20;98.10
15554;DHT22;7878;44.632;10.942;2022-12-18T07:08:52;9.20;98.10
15554;DHT22;7878;44.632;10.942;2022-12-18T07:11:18;9.30;97.80
15554;DHT22;7878;44.632;10.942;2022-12-18T07:13:45;9.20;97.60
15554;DHT22;7878;44.632;10.942;2022-12-18T07:16:13;9.30;97.40
15554;DHT22;7878;44.632;10.942;2022-12-18T07:18:39;9.30;97.60
15554;DHT22;7878;44.632;10.942;2022-12-18T07:21:06;9.30;97.20
15554;DHT22;7878;44.632;10.942;2022-12-18T07:23:33;9.30;96.90
15554;DHT22;7878;44.632;10.942;2022-12-18T07:26:04;9.30;97.30
15554;DHT22;7878;44.632;10.942;2022-12-18T07:28:31;9.40;96.40
15554;DHT22;7878;44.632;10.942;2022-12-18T07:30:58;9.40;96.50
15554;DHT22;7878;44.632;10.942;2022-12-18T07:33:24;9.40;96.20
15554;DHT22;7878;44.632;10.942;2022-12-18T07:35:50;9.50;96.20
15554;DHT22;7878;44.632;10.942;2022-12-18T07:38:16;9.50;95.90
15554;DHT22;7878;44.632;10.942;2022-12-18T07:40:42;9.40;96.10
15554;DHT22;7878;44.632;10.942;2022-12-18T07:43:07;9.40;96.10
15554;DHT22;7878;44.632;10.942;2022-12-18T07:45:33;9.50;96.20
15554;DHT22;7878;44.632;10.942;2022-12-18T07:47:59;9.50;96.40
15554;DHT22;7878;44.632;10.942;2022-12-18T07:50:24;9.50;96.40
15554;DHT22;7878;44.632;10.942;2022-12-18T07:52:50;9.50;96.40
15554;DHT22;7878;44.632;10.942;2022-12-18T07:55:15;9.50;96.40
15554;DHT22;7878;44.632;10.942;2022-12-18T07:57:41;9.60;96.40
15554;DHT22;7878;44.632;10.942;2022-12-18T08:00:07;9.70;96.30
15554;DHT22;7878;44.632;10.942;2022-12-18T08:02:33;9.70;96.20
15554;DHT22;7878;44.632;10.942;2022-12-18T08:04:59;9.70;96.10
15554;DHT22;7878;44.632;10.942;2022-12-18T08:07:24;9.80;96.10
15554;DHT22;7878;44.632;10.942;2022-12-18T08:09:50;9.80;95.70
15554;DHT22;7878;44.632;10.942;2022-12-18T08:12:16;9.80;95.90
15554;DHT22;7878;44.632;10.942;2022-12-18T08:14:41;9.90;95.90
15554;DHT22;7878;44.632;10.942;2022-12-18T08:17:07;9.90;96.30
15554;DHT22;7878;44.632;10.942;2022-12-18T08:19:33;9.90;96.30
15554;DHT22;7878;44.632;10.942;2022-12-18T08:21:58;9.90;96.10
15554;DHT22;7878;44.632;10.942;2022-12-18T08:24:24;9.90;96.00
15554;DHT22;7878;44.632;10.942;2022-12-18T08:26:51;10.00;95.80
15554;DHT22;7878;44.632;10.942;2022-12-18T08:29:16;10.10;96.30
15554;DHT22;7878;44.632;10.942;2022-12-18T08:31:42;10.20;96.00
15554;DHT22;7878;44.632;10.942;2022-12-18T08:34:08;10.20;96.00
15554;DHT22;7878;44.632;10.942;2022-12-18T08:36:34;10.30;96.00
15554;DHT22;7878;44.632;10.942;2022-12-18T08:39:00;10.40;96.20
15554;DHT22;7878;44.632;10.942;2022-12-18T08:41:26;10.40;96.50
15554;DHT22;7878;44.632;10.942;2022-12-18T08:43:52;10.40;96.60
15554;DHT22;7878;44.632;10.942;2022-12-18T08:46:38;10.50;96.60
15554;DHT22;7878;44.632;10.942;2022-12-18T08:49:06;10.60;96.50
15554;DHT22;7878;44.632;10.942;2022-12-18T08:51:32;10.60;96.80
15554;DHT22;7878;44.632;10.942;2022-12-18T08:53:59;10.70;96.10
15554;DHT22;7878;44.632;10.942;2022-12-18T08:56:24;10.80;96.30
15554;DHT22;7878;44.632;10.942;2022-12-18T08:58:54;10.80;96.20
15554;DHT22;7878;44.632;10.942;2022-12-18T09:01:20;10.70;96.10
15554;DHT22;7878;44.632;10.942;2022-12-18T09:03:46;10.60;95.80
15554;DHT22;7878;44.632;10.942;2022-12-18T09:06:17;10.50;96.00
15554;DHT22;7878;44.632;10.942;2022-12-18T09:08:44;10.50;96.30
15554;DHT22;7878;44.632;10.942;2022-12-18T09:11:25;10.50;96.60
15554;DHT22;7878;44.632;10.942;2022-12-18T09:13:51;10.70;96.40
15554;DHT22;7878;44.632;10.942;2022-12-18T09:16:18;10.70;96.30
15554;DHT22;7878;44.632;10.942;2022-12-18T09:18:45;10.80;96.10
15554;DHT22;7878;44.632;10.942;2022-12-18T09:21:16;10.80;95.70
15554;DHT22;7878;44.632;10.942;2022-12-18T09:23:42;11.00;95.50
15554;DHT22;7878;44.632;10.942;2022-12-18T09:26:08;11.10;95.90
15554;DHT22;7878;44.632;10.942;2022-12-18T09:28:33;11.20;96.00
15554;DHT22;7878;44.632;10.942;2022-12-18T09:31:07;11.60;95.80
15554;DHT22;7878;44.632;10.942;2022-12-18T09:33:34;12.10;95.90
15554;DHT22;7878;44.632;10.942;2022-12-18T09:36:02;12.90;95.50
15554;DHT22;7878;44.632;10.942;2022-12-18T09:38:28;13.80;95.20
15554;DHT22;7878;44.632;10.942;2022-12-18T09:40:58;14.80;94.60
15554;DHT22;7878;44.632;10.942;2022-12-18T09:43:41;16.20;93.10
15554;DHT22;7878;44.632;10.942;2022-12-18T09:46:16;16.30;91.50
15554;DHT22;7878;44.632;10.942;2022-12-18T09:48:46;15.40;91.20
15554;DHT22;7878;44.632;10.942;2022-12-18T09:54:07;16.60;91.50
15554;DHT22;7878;44.632;10.942;2022-12-18T09:56:40;18.20;89.40
15554;DHT22;7878;44.632;10.942;2022-12-18T09:59:18;18.80;87.10
15554;DHT22;7878;44.632;10.942;2022-12-18T10:01:44;20.00;83.60
15554;DHT22;7878;44.632;10.942;2022-12-18T10:04:10;20.40;84.90
15554;DHT22;7878;44.632;10.942;2022-12-18T10:14:29;17.90;82.20
15554;DHT22;7878;44.632;10.942;2022-12-18T10:19:43;16.00;83.20
15554;DHT22;7878;44.632;10.942;2022-12-18T10:28:20;19.40;72.40
15554;DHT22;7878;44.632;10.942;2022-12-18T10:30:47;20.70;79.10
15554;DHT22;7878;44.632;10.942;2022-12-18T10:33:24;20.50;78.80
15554;DHT22;7878;44.632;10.942;2022-12-18T10:35:51;20.80;73.40
15554;DHT22;7878;44.632;10.942;2022-12-18T10:43:27;25.10;65.70
15554;DHT22;7878;44.632;10.942;2022-12-18T10:48:32;28.20;62.70
15554;DHT22;7878;44.632;10.942;2022-12-18T10:50:58;29.10;64.40
15554;DHT22;7878;44.632;10.942;2022-12-18T10:53:27;29.30;61.40
15554;DHT22;7878;44.632;10.942;2022-12-18T10:55:56;28.20;62.60
15554;DHT22;7878;44.632;10.942;2022-12-18T11:03:42;27.10;57.30
15554;DHT22;7878;44.632;10.942;2022-12-18T11:06:11;27.00;61.30
15554;DHT22;7878;44.632;10.942;2022-12-18T11:08:37;26.80;60.90
15554;DHT22;7878;44.632;10.942;2022-12-18T11:11:09;27.30;64.50
15554;DHT22;7878;44.632;10.942;2022-12-18T11:13:42;28.00;59.70
15554;DHT22;7878;44.632;10.942;2022-12-18T11:16:19;28.70;61.20
15554;DHT22;7878;44.632;10.942;2022-12-18T11:18:45;28.80;56.40
15554;DHT22;7878;44.632;10.942;2022-12-18T11:21:12;28.30;58.40
15554;DHT22;7878;44.632;10.942;2022-12-18T11:23:47;27.70;59.40
15554;DHT22;7878;44.632;10.942;2022-12-18T11:26:13;28.10;56.40
15554;DHT22;7878;44.632;10.942;2022-12-18T11:28:43;26.90;60.50
15554;DHT22;7878;44.632;10.942;2022-12-18T11:31:25;25.50;63.30
15554;DHT22;7878;44.632;10.942;2022-12-18T11:36:30;26.50;56.90
15554;DHT22;7878;44.632;10.942;2022-12-18T11:39:00;25.80;59.60
15554;DHT22;7878;44.632;10.942;2022-12-18T11:41:34;24.70;61.30
15554;DHT22;7878;44.632;10.942;2022-12-18T11:44:28;24.20;62.80
15554;DHT22;7878;44.632;10.942;2022-12-18T11:47:07;23.70;60.00
15554;DHT22;7878;44.632;10.942;2022-12-18T11:49:35;23.40;62.40
15554;DHT22;7878;44.632;10.942;2022-12-18T11:52:18;23.40;63.00
15554;DHT22;7878;44.632;10.942;2022-12-18T11:54:44;23.20;58.70
15554;DHT22;7878;44.632;10.942;2022-12-18T12:00:35;21.60;60.70
15554;DHT22;7878;44.632;10.942;2022-12-18T12:05:36;19.90;63.60
15554;DHT22;7878;44.632;10.942;2022-12-18T12:21:20;16.40;66.50
15554;DHT22;7878;44.632;10.942;2022-12-18T12:26:29;16.80;68.80
15554;DHT22;7878;44.632;10.942;2022-12-18T12:29:48;19.40;67.80
15554;DHT22;7878;44.632;10.942;2022-12-18T12:34:55;23.40;60.90
15554;DHT22;7878;44.632;10.942;2022-12-18T12:37:33;24.50;61.30
15554;DHT22;7878;44.632;10.942;2022-12-18T12:40:04;24.30;59.80
15554;DHT22;7878;44.632;10.942;2022-12-18T12:45:21;23.50;62.20
15554;DHT22;7878;44.632;10.942;2022-12-18T12:47:49;21.80;62.30
15554;DHT22;7878;44.632;10.942;2022-12-18T12:50:18;21.00;63.30
15554;DHT22;7878;44.632;10.942;2022-12-18T12:52:50;21.70;63.50
15554;DHT22;7878;44.632;10.942;2022-12-18T12:55:26;22.80;61.90
15554;DHT22;7878;44.632;10.942;2022-12-18T13:01:31;25.60;57.50
15554;DHT22;7878;44.632;10.942;2022-12-18T13:09:21;28.30;56.60
15554;DHT22;7878;44.632;10.942;2022-12-18T13:11:47;27.30;57.70
15554;DHT22;7878;44.632;10.942;2022-12-18T13:14:39;25.70;58.60
15554;DHT22;7878;44.632;10.942;2022-12-18T13:19:51;24.40;52.60
15554;DHT22;7878;44.632;10.942;2022-12-18T13:22:29;23.70;56.30
15554;DHT22;7878;44.632;10.942;2022-12-18T13:24:56;22.70;54.50
15554;DHT22;7878;44.632;10.942;2022-12-18T13:38:37;17.70;62.20
15554;DHT22;7878;44.632;10.942;2022-12-18T13:43:47;16.70;63.10
15554;DHT22;7878;44.632;10.942;2022-12-18T13:49:00;16.10;64.70
15554;DHT22;7878;44.632;10.942;2022-12-18T13:51:26;15.80;67.00
15554;DHT22;7878;44.632;10.942;2022-12-18T13:54:24;15.50;67.20
15554;DHT22;7878;44.632;10.942;2022-12-18T13:56:48;15.30;67.40
15554;DHT22;7878;44.632;10.942;2022-12-18T13:59:23;15.00;67.90
15554;DHT22;7878;44.632;10.942;2022-12-18T14:02:00;14.80;68.20
15554;DHT22;7878;44.632;10.942;2022-12-18T14:04:33;14.50;67.70
15554;DHT22;7878;44.632;10.942;2022-12-18T14:07:03;14.30;68.60
15554;DHT22;7878;44.632;10.942;2022-12-18T14:09:35;14.10;69.00
15554;DHT22;7878;44.632;10.942;2022-12-18T14:12:02;13.90;69.40
15554;DHT22;7878;44.632;10.942;2022-12-18T14:14:48;13.70;70.40
15554;DHT22;7878;44.632;10.942;2022-12-18T14:17:17;13.60;71.00
15554;DHT22;7878;44.632;10.942;2022-12-18T14:19:47;13.50;71.50
15554;DHT22;7878;44.632;10.942;2022-12-18T14:22:19;13.40;71.50
15554;DHT22;7878;44.632;10.942;2022-12-18T14:24:46;13.30;72.60
15554;DHT22;7878;44.632;10.942;2022-12-18T14:27:25;13.20;72.70
15554;DHT22;7878;44.632;10.942;2022-12-18T14:29:51;13.10;72.40
15554;DHT22;7878;44.632;10.942;2022-12-18T14:32:18;13.00;74.00
15554;DHT22;7878;44.632;10.942;2022-12-18T14:37:16;12.80;74.90
15554;DHT22;7878;44.632;10.942;2022-12-18T14:39:56;12.80;74.80
15554;DHT22;7878;44.632;10.942;2022-12-18T14:42:23;12.70;75.00
15554;DHT22;7878;44.632;10.942;2022-12-18T14:47:58;12.50;75.90
15554;DHT22;7878;44.632;10.942;2022-12-18T14:50:23;12.50;77.00
15554;DHT22;7878;44.632;10.942;2022-12-18T14:52:49;12.40;77.30
15554;DHT22;7878;44.632;10.942;2022-12-18T14:55:17;12.40;77.50
15554;DHT22;7878;44.632;10.942;2022-12-18T14:57:43;12.30;77.70
15554;DHT22;7878;44.632;10.942;2022-12-18T15:00:18;12.20;78.60
15554;DHT22;7878;44.632;10.942;2022-12-18T15:02:55;12.20;78.70
15554;DHT22;7878;44.632;10.942;2022-12-18T15:05:29;12.10;78.90
15554;DHT22;7878;44.632;10.942;2022-12-18T15:07:57;12.10;79.40
15554;DHT22;7878;44.632;10.942;2022-12-18T15:10:30;12.00;79.90
15554;DHT22;7878;44.632;10.942;2022-12-18T15:20:56;11.80;81.30
15554;DHT22;7878;44.632;10.942;2022-12-18T15:23:33;11.70;81.60
15554;DHT22;7878;44.632;10.942;2022-12-18T15:26:02;11.70;82.10
15554;DHT22;7878;44.632;10.942;2022-12-18T15:33:40;11.50;82.80
15554;DHT22;7878;44.632;10.942;2022-12-18T15:36:14;11.50;83.00
15554;DHT22;7878;44.632;10.942;2022-12-18T15:38:40;11.40;83.00
15554;DHT22;7878;44.632;10.942;2022-12-18T15:41:11;11.40;82.90
15554;DHT22;7878;44.632;10.942;2022-12-18T15:43:38;11.40;82.90
15554;DHT22;7878;44.632;10.942;2022-12-18T15:46:12;11.40;83.10
15554;DHT22;7878;44.632;10.942;2022-12-18T15:48:45;11.30;83.30
15554;DHT22;7878;44.632;10.942;2022-12-18T15:51:17;11.20;83.40
15554;DHT22;7878;44.632;10.942;2022-12-18T15:53:44;11.10;83.80
15554;DHT22;7878;44.632;10.942;2022-12-18T15:56:12;11.10;83.80
15554;DHT22;7878;44.632;10.942;2022-12-18T15:58:56;11.10;83.70
15554;DHT22;7878;44.632;10.942;2022-12-18T16:01:27;11.10;83.90
15554;DHT22;7878;44.632;10.942;2022-12-18T16:03:54;11.00;84.00
15554;DHT22;7878;44.632;10.942;2022-12-18T16:06:21;11.00;84.30
15554;DHT22;7878;44.632;10.942;2022-12-18T16:08:46;10.90;84.60
15554;DHT22;7878;44.632;10.942;2022-12-18T16:14:11;10.80;85.30
15554;DHT22;7878;44.632;10.942;2022-12-18T16:16:38;10.70;85.60
15554;DHT22;7878;44.632;10.942;2022-12-18T16:19:03;10.60;86.20
15554;DHT22;7878;44.632;10.942;2022-12-18T16:21:29;10.60;86.60
15554;DHT22;7878;44.632;10.942;2022-12-18T16:23:55;10.50;86.80
15554;DHT22;7878;44.632;10.942;2022-12-18T16:26:20;10.50;87.30
15554;DHT22;7878;44.632;10.942;2022-12-18T16:28:46;10.50;87.50
15554;DHT22;7878;44.632;10.942;2022-12-18T16:31:12;10.50;87.90
15554;DHT22;7878;44.632;10.942;2022-12-18T16:33:37;10.40;88.40
15554;DHT22;7878;44.632;10.942;2022-12-18T16:36:03;10.40;88.90
15554;DHT22;7878;44.632;10.942;2022-12-18T16:38:29;10.40;89.20
15554;DHT22;7878;44.632;10.942;2022-12-18T16:40:54;10.40;89.30
15554;DHT22;7878;44.632;10.942;2022-12-18T16:43:38;10.40;89.80
15554;DHT22;7878;44.632;10.942;2022-12-18T16:46:04;10.30;90.00
15554;DHT22;7878;44.632;10.942;2022-12-18T16:48:30;10.30;90.20
15554;DHT22;7878;44.632;10.942;2022-12-18T16:51:04;10.30;90.40
15554;DHT22;7878;44.632;10.942;2022-12-18T16:53:32;10.20;90.50
15554;DHT22;7878;44.632;10.942;2022-12-18T16:55:57;10.20;90.50
15554;DHT22;7878;44.632;10.942;2022-12-18T16:58:23;10.10;90.70
15554;DHT22;7878;44.632;10.942;2022-12-18T17:00:49;10.10;90.90
15554;DHT22;7878;44.632;10.942;2022-12-18T17:03:15;10.10;91.00
15554;DHT22;7878;44.632;10.942;2022-12-18T17:05:40;10.10;91.10
15554;DHT22;7878;44.632;10.942;2022-12-18T17:08:06;10.10;91.40
15554;DHT22;7878;44.632;10.942;2022-12-18T17:10:34;10.00;91.40
15554;DHT22;7878;44.632;10.942;2022-12-18T17:13:00;10.00;91.60
15554;DHT22;7878;44.632;10.942;2022-12-18T17:15:26;10.00;91.80
15554;DHT22;7878;44.632;10.942;2022-12-18T17:17:51;10.00;92.00
15554;DHT22;7878;44.632;10.942;2022-12-18T17:20:17;10.00;92.00
15554;DHT22;7878;44.632;10.942;2022-12-18T17:22:43;9.90;92.70
15554;DHT22;7878;44.632;10.942;2022-12-18T17:25:08;9.90;92.80
15554;DHT22;7878;44.632;10.942;2022-12-18T17:27:34;9.90;92.90
15554;DHT22;7878;44.632;10.942;2022-12-18T17:30:01;9.90;93.00
15554;DHT22;7878;44.632;10.942;2022-12-18T17:32:27;9.90;93.20
15554;DHT22;7878;44.632;10.942;2022-12-18T17:34:52;9.80;93.30
15554;DHT22;7878;44.632;10.942;2022-12-18T17:37:18;9.80;93.40
15554;DHT22;7878;44.632;10.942;2022-12-18T17:39:44;9.80;93.50
15554;DHT22;7878;44.632;10.942;2022-12-18T17:42:10;9.90;93.60
15554;DHT22;7878;44.632;10.942;2022-12-18T17:44:35;9.80;93.70
15554;DHT22;7878;44.632;10.942;2022-12-18T17:47:02;9.80;93.60
15554;DHT22;7878;44.632;10.942;2022-12-18T17:49:28;9.80;93.70
15554;DHT22;7878;44.632;10.942;2022-12-18T17:51:54;9.80;93.80
15554;DHT22;7878;44.632;10.942;2022-12-18T17:54:19;9.80;93.90
15554;DHT22;7878;44.632;10.942;2022-12-18T17:56:45;9.80;93.90
15554;DHT22;7878;44.632;10.942;2022-12-18T17:59:11;9.80;93.90
15554;DHT22;7878;44.632;10.942;2022-12-18T18:01:37;9.80;93.90
15554;DHT22;7878;44.632;10.942;2022-12-18T18:04:03;9.80;93.90
15554;DHT22;7878;44.632;10.942;2022-12-18T18:06:29;9.80;94.00
15554;DHT22;7878;44.632;10.942;2022-12-18T18:08:55;9.70;94.10